Logo AVAMET
Benvolgut visitant, si us plau, ingressa Recuperar contrasenya

Torrevella centre

Dades diàries. Acumulats / Últims 30 dies disponibles

Data Temperatura (°C) Humitat rel. (%) Pressió rel. (hPa) Vent (km/h) Precipitació
Mínima Mitjana Màxima Amplitud
tèrmica
Mínima Mitjana Màxima Mínima Mitjana Màxima Predom. Mitjana Ràfega
màxima
Total
(mm)
Índex-n
Mínima Mitjana Màxima Mínima Mitjana Màxima n
0 a 1
P0 max
mm 5'
Dades mensuals acumulades fins l'últim dia disponible
11/2019 10,7 15,8 21,2 18,9 18,7 23,0 29,1 18,4 32 54 74 1.005 1.014 1.023   3,8 43,5 0,6
Dades anuals acumulades fins l'últim dia disponible
2019 4,9 16,5 26,7 19,6 13,1 23,5 36,9 32,0 17 71 97 997 1.018 1.036   2,9 56,3 347,6
Últims 30 dies disponibles
11-11-2019 10,7     14,4     18,8 8,1 40 54 65 1.013 1.015 1.017 SE 1,4 19,3 0,0
10-11-2019 13,2     15,7     18,7 5,5 33 51 74 1.013 1.014 1.016 SE 3,2 25,7 0,0
09-11-2019 13,1     15,5     20,4 7,3 32 51 73 1.016 1.020 1.023 SSO 6,2 32,2 0,4
08-11-2019 12,8     15,6     19,1 6,3 35 48 64 1.012 1.015 1.020 S 3,9 32,2 0,0
07-11-2019 13,8     17,2     22,3 8,5 43 58 73 1.010 1.012 1.016 S 2,5 24,1 0,2
06-11-2019 14,1     17,6     21,7 7,6 36 52 67 1.014 1.015 1.016 S 3,6 27,4 0,0
05-11-2019 16,3     18,8     21,9 5,6 38 55 71 1.008 1.012 1.016 SSO 5,9 37,0 0,0
04-11-2019 18,3     21,6     25,6 7,3 47 59 73 1.009 1.012 1.014 S 3,4 32,2 0,0
03-11-2019 20,2     23,3     27,8 7,6 39 51 61 1.005 1.007 1.014 SSO 5,9 43,5 0,0
02-11-2019 21,2     23,7     27,8 6,6 40 55 65 1.007 1.012 1.016 SO 3,3 27,4 0,0
01-11-2019 20,6     24,1     29,1 8,5 49 63 73 1.016 1.019 1.022 SO 2,0 22,5 0,0
31-10-2019 20,3     23,6     28,8 8,5 49 62 76 1.021 1.022 1.023 SSO 2,1 20,9 0,0
30-10-2019 18,3     21,3     26,5 8,2 57 74 85 1.020 1.021 1.023 ESE 0,7 16,1 0,0
29-10-2019 16,9     20,4     25,2 8,3 68 82 90 1.017 1.018 1.020 S 1,4 19,3 0,0
28-10-2019 15,8     18,8     22,8 7,0 70 85 92 1.018 1.020 1.022 SE 1,6 17,7 0,2
27-10-2019 15,7     19,0     24,3 8,6 66 83 93 1.021 1.023 1.024 ESE 0,2 11,3 0,0
26-10-2019 15,1     19,1     23,8 8,7 64 77 89 1.021 1.022 1.023 ESE 0,5 12,9 0,0
25-10-2019 15,3     19,1     23,2 7,9 53 67 74 1.022 1.023 1.025 SSE 1,8 17,7 0,0
24-10-2019 13,8     17,3     22,3 8,5 47 63 75 1.013 1.018 1.024 S 1,6 24,1 0,0
23-10-2019 12,4     16,1     20,7 8,3 55 71 88 1.008 1.010 1.013 SSO 2,4 27,4 0,2
22-10-2019 13,7     14,7     17,2 3,5 80 89 93 1.009 1.012 1.017 S 3,4 30,6 31,6 0,28 1,60
21-10-2019 15,4     17,8     20,1 4,7 51 64 86 1.016 1.018 1.019 SE 0,3 22,5 3,2 0,21 0,40
20-10-2019 18,2     20,4     23,9 5,7 52 71 88 1.007 1.011 1.017 S 1,1 24,1 0,0
19-10-2019 17,1     21,3     26,2 9,1 52 76 85 1.008 1.012 1.015 SSE 3,4 30,6 0,0
18-10-2019 18,7     22,4     26,9 8,2 66 75 80 1.015 1.016 1.016 S 3,6 22,5 0,0
15-10-2019 17,1     18,7     21,0 3,9 54 60 77 1.016 1.018 1.022 ESE 0,2 16,1 0,0
14-10-2019 20,3     22,3     25,9 5,6 76 87 92 1.012 1.015 1.017 SE 0,1 17,7 2,6
13-10-2019 20,6     23,9     28,5 7,9 65 83 92 1.017 1.017 1.019 ESE 0,0 11,3 0,0
12-10-2019 21,1     23,3     25,9 4,8 79 85 90 1.017 1.018 1.020 E 2,8 24,1 0,0
11-10-2019 20,8     23,7     25,9 5,1 70 77 85 1.020 1.022 1.023 ENE 3,3 22,5 0,0
Últims 13 mesos disponibles
10/2019 12,4 18,3 23,2 21,3 17,2 25,4 30,7 18,3 58 75 89 1.010 1.018 1.023 S 1,6 30,6 37,8
09/2019 17,0 22,0 24,9 24,8 22,8 28,1 31,3 14,3 53 78 90 1.011 1.018 1.023 E 3,7 49,9 129,4
08/2019 21,8 24,4 26,7 27,3 27,3 30,7 36,9 15,1 66 77 84 1.011 1.016 1.020 ESE 2,8 38,6 20,4
05/2019 13,8 16,6 21,3 19,4 19,9 23,0 27,9 14,1 68 75 82 1.013 1.016 1.019 SSE 3,0 35,4 0,0
04/2019 10,6 13,5 15,7 16,5 15,9 20,4 26,1 15,5 54 72 92 1.002 1.014 1.027 SSE 3,3 56,3 132,6
03/2019 8,4 11,5 14,1 14,9 14,4 19,0 25,6 17,2 56 71 88 1.013 1.024 1.032 E 2,8 46,7 21,4
02/2019 6,2 10,2 13,1 13,6 14,6 17,8 23,6 17,4 37 66 82 999 1.024 1.034 SSE 2,5 43,5 4,0
01/2019 4,9 9,1 13,4 12,6 13,1 17,6 22,6 17,7 46 63 84 1.006 1.021 1.033 SE 1,5 41,8 1,4
12/2018 8,4 11,2 15,2 14,2 11,4 18,7 23,7 15,3 55 75 85 1.011 1.027 1.032 SE 0,9 51,5 5,4
11/2018 9,8 13,7 17,1 16,3 16,3 19,5 21,6 11,8 48 74 92 1.001 1.017 1.024 SE 3,2 44,0 107,8
10/2018 10,3 17,5 22,0 20,6 16,2 24,2 28,4 18,1 43 71 85 1.001 1.016 1.026 3,0 47,0 21,6
09/2018 18,8 23,0 25,9 26,1 26,0 29,1 32,7 13,9 61 75 83 1.013 1.020 1.027 45,0 42,2
08/2018 22,7 25,1 27,8 28,1 26,9 31,0 35,4 12,7 59 74 81 1.014 1.017 1.021 32,0 3,2
Tots els anys disponibles
2018 4,7 16,6 27,8 19,8 11,4 23,3 35,4 30,7 43 70 92 996 1.017 1.035 SE 0,4 68,0 307,2
2017 2,2 16,5 27,7 19,8 7,3 23,2 34,2 32,0 41 70 86 1.002 1.019 1.038 S 0,0 69,0 206,2
2016 5,7 16,5 26,0 19,8 13,3 23,2 37,4 31,7 35 70 88 510 1.015 1.036 61,0 242,0
2015 4,6 16,6 23,8 20,1 21,9 23,5 38,2 33,6 58 69 75 1.014 1.018 1.030 84,0 169,8
2014 5,3 17,0 26,6 20,4 12,3 23,8 35,1 29,8 32 67 90 992 1.015 1.033 58,0 228,1
2013 5,5 15,9 20,4 19,4 20,6 22,9 34,4 28,9 55 66 73 1.008 1.016 1.024 66,0 252,6
2012 312,4
2011 208,9
2010 3,2 16,0 26,9 19,2 9,7 22,3 37,7 34,5 37 66 91 253,0 282,8
2009 4,1 17,3 26,7 20,2 8,8 24,0 38,9 34,8 3,6 253,0 209,2
2008 5,4 16,2 18,9 22,6 37,9 32,5 39 71 93 1.001 1.022 1.032 5,8 253,0 334,8
2007 353,3
Temperatura (°C)
Humitat relativa (%)
Velocitat del vent i ràfega màxima (km/h)
Direcció del vent (°)
Pressió (hPa)
Precipitació (mm)
Nota sobre les dades: s'avisa a l'usuari de la provisionalitat i no oficialitat d'aquestes dades
Logo AVAMET blanc
Web allotjada a Sollutia
Llicència de Creative CommonsLa web d'AVAMET i els seus continguts estan subjectes a una llicència de
Reconeixement - No Comercial - Compartir igual
Últimes estacions: Xàbia - Alt de la Granadella (Soci), Villena - Sierra de Salinas (Soci), Sueca - Centre (Inforatge), Xàbia - La Plana (Soci), Banyeres de Mariola - Molí Sol (Soci), Villena - Villa Ventín (Soci), Benissa - Convent (Soci), - - -